sensor_id;sensor_type;location;lat;lon;timestamp;temperature;humidity
34147;DHT22;20423;49.448;9.056;2022-12-16T00:02:15;-3.10;99.90
34147;DHT22;20423;49.448;9.056;2022-12-16T00:04:40;-3.10;99.90
34147;DHT22;20423;49.448;9.056;2022-12-16T00:07:06;-3.10;99.90
34147;DHT22;20423;49.448;9.056;2022-12-16T00:09:31;-3.10;99.90
34147;DHT22;20423;49.448;9.056;2022-12-16T00:11:57;-3.10;99.90
34147;DHT22;20423;49.448;9.056;2022-12-16T00:14:23;-3.10;99.90
34147;DHT22;20423;49.448;9.056;2022-12-16T00:16:48;-3.10;99.90
34147;DHT22;20423;49.448;9.056;2022-12-16T00:22:54;-3.10;99.90
34147;DHT22;20423;49.448;9.056;2022-12-16T00:25:20;-3.10;99.90
34147;DHT22;20423;49.448;9.056;2022-12-16T00:27:46;-3.10;99.90
34147;DHT22;20423;49.448;9.056;2022-12-16T00:30:12;-3.10;99.90
34147;DHT22;20423;49.448;9.056;2022-12-16T00:32:37;-3.10;99.90
34147;DHT22;20423;49.448;9.056;2022-12-16T00:35:03;-3.10;99.90
34147;DHT22;20423;49.448;9.056;2022-12-16T00:37:29;-3.00;99.90
34147;DHT22;20423;49.448;9.056;2022-12-16T00:39:54;-3.00;99.90
34147;DHT22;20423;49.448;9.056;2022-12-16T00:42:20;-3.00;99.90
34147;DHT22;20423;49.448;9.056;2022-12-16T00:44:49;-3.00;99.90
34147;DHT22;20423;49.448;9.056;2022-12-16T00:47:14;-3.00;99.90
34147;DHT22;20423;49.448;9.056;2022-12-16T00:49:40;-3.00;99.90
34147;DHT22;20423;49.448;9.056;2022-12-16T00:52:06;-3.00;99.90
34147;DHT22;20423;49.448;9.056;2022-12-16T00:54:31;-3.00;99.90
34147;DHT22;20423;49.448;9.056;2022-12-16T00:56:57;-3.00;99.90
34147;DHT22;20423;49.448;9.056;2022-12-16T00:59:23;-2.90;99.90
34147;DHT22;20423;49.448;9.056;2022-12-16T01:01:48;-2.90;99.90
34147;DHT22;20423;49.448;9.056;2022-12-16T01:08:01;-2.90;99.90
34147;DHT22;20423;49.448;9.056;2022-12-16T01:10:30;-2.90;99.90
34147;DHT22;20423;49.448;9.056;2022-12-16T01:12:55;-2.90;99.90
34147;DHT22;20423;49.448;9.056;2022-12-16T01:15:21;-2.90;99.90
34147;DHT22;20423;49.448;9.056;2022-12-16T01:17:46;-2.90;99.90
34147;DHT22;20423;49.448;9.056;2022-12-16T01:20:12;-2.90;99.90
34147;DHT22;20423;49.448;9.056;2022-12-16T01:22:38;-2.90;99.90
34147;DHT22;20423;49.448;9.056;2022-12-16T01:25:04;-2.80;99.90
34147;DHT22;20423;49.448;9.056;2022-12-16T01:27:30;-2.90;99.90
34147;DHT22;20423;49.448;9.056;2022-12-16T01:29:56;-2.90;99.90
34147;DHT22;20423;49.448;9.056;2022-12-16T01:32:22;-2.90;99.90
34147;DHT22;20423;49.448;9.056;2022-12-16T01:34:52;-2.80;99.90
34147;DHT22;20423;49.448;9.056;2022-12-16T01:37:18;-2.80;99.90
34147;DHT22;20423;49.448;9.056;2022-12-16T01:39:45;-2.80;99.90
34147;DHT22;20423;49.448;9.056;2022-12-16T01:42:15;-2.80;99.90
34147;DHT22;20423;49.448;9.056;2022-12-16T01:44:43;-2.80;99.90
34147;DHT22;20423;49.448;9.056;2022-12-16T01:47:15;-2.80;99.90
34147;DHT22;20423;49.448;9.056;2022-12-16T01:49:53;-2.80;99.90
34147;DHT22;20423;49.448;9.056;2022-12-16T01:52:22;-2.70;99.90
34147;DHT22;20423;49.448;9.056;2022-12-16T01:55:01;-2.70;99.90
34147;DHT22;20423;49.448;9.056;2022-12-16T01:57:35;-2.70;99.90
34147;DHT22;20423;49.448;9.056;2022-12-16T02:00:02;-2.70;99.90
34147;DHT22;20423;49.448;9.056;2022-12-16T02:02:39;-2.70;99.90
34147;DHT22;20423;49.448;9.056;2022-12-16T02:05:05;-2.70;99.90
34147;DHT22;20423;49.448;9.056;2022-12-16T02:08:05;-2.60;99.90
34147;DHT22;20423;49.448;9.056;2022-12-16T02:10:39;-2.60;99.90
34147;DHT22;20423;49.448;9.056;2022-12-16T02:21:17;-2.70;99.90
34147;DHT22;20423;49.448;9.056;2022-12-16T02:32:16;-2.80;99.90
34147;DHT22;20423;49.448;9.056;2022-12-16T02:38:02;-2.80;99.90
34147;DHT22;20423;49.448;9.056;2022-12-16T02:41:05;-2.80;99.90
34147;DHT22;20423;49.448;9.056;2022-12-16T02:46:21;-2.90;99.90
34147;DHT22;20423;49.448;9.056;2022-12-16T02:48:48;-2.90;99.90
34147;DHT22;20423;49.448;9.056;2022-12-16T02:51:14;-2.90;99.90
34147;DHT22;20423;49.448;9.056;2022-12-16T02:53:40;-2.90;99.90
34147;DHT22;20423;49.448;9.056;2022-12-16T03:02:10;-2.80;99.90
34147;DHT22;20423;49.448;9.056;2022-12-16T03:04:54;-2.80;99.90
34147;DHT22;20423;49.448;9.056;2022-12-16T03:07:23;-2.90;99.90
34147;DHT22;20423;49.448;9.056;2022-12-16T03:09:52;-2.90;99.90
34147;DHT22;20423;49.448;9.056;2022-12-16T03:12:20;-3.00;99.90
34147;DHT22;20423;49.448;9.056;2022-12-16T03:14:50;-3.00;99.90
34147;DHT22;20423;49.448;9.056;2022-12-16T03:17:18;-3.10;99.90
34147;DHT22;20423;49.448;9.056;2022-12-16T03:19:49;-3.20;99.90
34147;DHT22;20423;49.448;9.056;2022-12-16T03:22:24;-3.30;99.90
34147;DHT22;20423;49.448;9.056;2022-12-16T03:24:50;-3.30;99.90
34147;DHT22;20423;49.448;9.056;2022-12-16T03:30:24;-3.40;99.90
34147;DHT22;20423;49.448;9.056;2022-12-16T03:35:43;-3.50;99.90
34147;DHT22;20423;49.448;9.056;2022-12-16T03:38:12;-3.40;99.90
34147;DHT22;20423;49.448;9.056;2022-12-16T03:40:57;-3.40;99.90
34147;DHT22;20423;49.448;9.056;2022-12-16T03:43:24;-3.40;99.90
34147;DHT22;20423;49.448;9.056;2022-12-16T03:45:52;-3.50;99.90
34147;DHT22;20423;49.448;9.056;2022-12-16T03:48:21;-3.60;99.90
34147;DHT22;20423;49.448;9.056;2022-12-16T03:50:47;-3.60;99.90
34147;DHT22;20423;49.448;9.056;2022-12-16T03:53:13;-3.60;99.90
34147;DHT22;20423;49.448;9.056;2022-12-16T03:55:38;-3.70;99.90
34147;DHT22;20423;49.448;9.056;2022-12-16T03:58:05;-3.90;99.90
34147;DHT22;20423;49.448;9.056;2022-12-16T04:00:30;-4.00;99.90
34147;DHT22;20423;49.448;9.056;2022-12-16T04:02:56;-4.00;99.90
34147;DHT22;20423;49.448;9.056;2022-12-16T04:05:22;-4.00;99.90
34147;DHT22;20423;49.448;9.056;2022-12-16T04:07:47;-4.00;99.90
34147;DHT22;20423;49.448;9.056;2022-12-16T04:10:13;-4.10;99.90
34147;DHT22;20423;49.448;9.056;2022-12-16T04:12:39;-4.20;99.90
34147;DHT22;20423;49.448;9.056;2022-12-16T04:15:23;-4.30;99.90
34147;DHT22;20423;49.448;9.056;2022-12-16T04:18:13;-4.40;99.90
34147;DHT22;20423;49.448;9.056;2022-12-16T04:21:01;-4.40;99.90
34147;DHT22;20423;49.448;9.056;2022-12-16T04:23:54;-4.30;99.90
34147;DHT22;20423;49.448;9.056;2022-12-16T04:26:39;-4.30;99.90
34147;DHT22;20423;49.448;9.056;2022-12-16T04:29:23;-4.40;99.90
34147;DHT22;20423;49.448;9.056;2022-12-16T04:31:49;-4.40;99.90
34147;DHT22;20423;49.448;9.056;2022-12-16T04:34:16;-4.50;99.90
34147;DHT22;20423;49.448;9.056;2022-12-16T04:39:40;-4.60;99.90
34147;DHT22;20423;49.448;9.056;2022-12-16T04:42:24;-4.70;99.90
34147;DHT22;20423;49.448;9.056;2022-12-16T04:45:08;-4.70;99.90
34147;DHT22;20423;49.448;9.056;2022-12-16T04:47:53;-4.80;99.90
34147;DHT22;20423;49.448;9.056;2022-12-16T04:50:38;-4.90;99.90
34147;DHT22;20423;49.448;9.056;2022-12-16T04:53:23;-4.90;99.90
34147;DHT22;20423;49.448;9.056;2022-12-16T04:56:07;-5.10;99.90
34147;DHT22;20423;49.448;9.056;2022-12-16T04:58:51;-5.20;99.90
34147;DHT22;20423;49.448;9.056;2022-12-16T05:01:35;-5.40;99.90
34147;DHT22;20423;49.448;9.056;2022-12-16T05:04:19;-5.60;99.90
34147;DHT22;20423;49.448;9.056;2022-12-16T05:07:04;-5.50;99.90
34147;DHT22;20423;49.448;9.056;2022-12-16T05:09:48;-5.40;99.90
34147;DHT22;20423;49.448;9.056;2022-12-16T05:12:32;-5.40;99.90
34147;DHT22;20423;49.448;9.056;2022-12-16T05:15:16;-5.30;99.90
34147;DHT22;20423;49.448;9.056;2022-12-16T05:18:10;-5.40;99.90
34147;DHT22;20423;49.448;9.056;2022-12-16T05:21:00;-5.40;99.90
34147;DHT22;20423;49.448;9.056;2022-12-16T05:23:45;-5.40;99.90
34147;DHT22;20423;49.448;9.056;2022-12-16T05:26:30;-5.50;99.90
34147;DHT22;20423;49.448;9.056;2022-12-16T05:29:14;-5.60;99.90
34147;DHT22;20423;49.448;9.056;2022-12-16T05:31:58;-5.70;99.90
34147;DHT22;20423;49.448;9.056;2022-12-16T05:34:47;-5.80;99.90
34147;DHT22;20423;49.448;9.056;2022-12-16T05:37:31;-5.70;99.90
34147;DHT22;20423;49.448;9.056;2022-12-16T05:40:15;-5.80;99.90
34147;DHT22;20423;49.448;9.056;2022-12-16T05:43:00;-5.80;99.90
34147;DHT22;20423;49.448;9.056;2022-12-16T05:45:44;-5.80;99.90
34147;DHT22;20423;49.448;9.056;2022-12-16T05:48:28;-5.90;99.90
34147;DHT22;20423;49.448;9.056;2022-12-16T05:54:27;-5.90;99.90
34147;DHT22;20423;49.448;9.056;2022-12-16T05:57:11;-5.90;99.90
34147;DHT22;20423;49.448;9.056;2022-12-16T05:59:56;-5.70;99.90
34147;DHT22;20423;49.448;9.056;2022-12-16T06:02:40;-5.70;99.90
34147;DHT22;20423;49.448;9.056;2022-12-16T06:05:24;-5.80;99.90
34147;DHT22;20423;49.448;9.056;2022-12-16T06:08:08;-6.10;99.90
34147;DHT22;20423;49.448;9.056;2022-12-16T06:11:18;-6.20;99.90
34147;DHT22;20423;49.448;9.056;2022-12-16T06:14:04;-6.20;99.90
34147;DHT22;20423;49.448;9.056;2022-12-16T06:16:48;-6.40;99.90
34147;DHT22;20423;49.448;9.056;2022-12-16T06:19:32;-6.50;99.90
34147;DHT22;20423;49.448;9.056;2022-12-16T06:22:16;-6.60;99.90
34147;DHT22;20423;49.448;9.056;2022-12-16T06:25:00;-6.70;99.90
34147;DHT22;20423;49.448;9.056;2022-12-16T06:27:50;-6.90;99.90
34147;DHT22;20423;49.448;9.056;2022-12-16T06:30:34;-7.00;99.90
34147;DHT22;20423;49.448;9.056;2022-12-16T06:33:19;-7.00;99.90
34147;DHT22;20423;49.448;9.056;2022-12-16T06:36:03;-7.00;99.90
34147;DHT22;20423;49.448;9.056;2022-12-16T06:38:47;-7.20;99.90
34147;DHT22;20423;49.448;9.056;2022-12-16T06:41:32;-7.20;99.90
34147;DHT22;20423;49.448;9.056;2022-12-16T06:44:16;-7.30;99.90
34147;DHT22;20423;49.448;9.056;2022-12-16T06:47:00;-7.20;99.90
34147;DHT22;20423;49.448;9.056;2022-12-16T06:49:45;-7.20;99.90
34147;DHT22;20423;49.448;9.056;2022-12-16T06:52:29;-7.20;99.90
34147;DHT22;20423;49.448;9.056;2022-12-16T06:55:13;-7.10;99.90
34147;DHT22;20423;49.448;9.056;2022-12-16T06:57:58;-7.10;99.90
34147;DHT22;20423;49.448;9.056;2022-12-16T07:00:42;-7.10;99.90
34147;DHT22;20423;49.448;9.056;2022-12-16T07:03:26;-7.10;99.90
34147;DHT22;20423;49.448;9.056;2022-12-16T07:06:11;-7.20;99.90
34147;DHT22;20423;49.448;9.056;2022-12-16T07:08:55;-7.10;99.90
34147;DHT22;20423;49.448;9.056;2022-12-16T07:11:39;-7.10;99.90
34147;DHT22;20423;49.448;9.056;2022-12-16T07:14:24;-7.10;99.90
34147;DHT22;20423;49.448;9.056;2022-12-16T07:17:08;-7.10;99.90
34147;DHT22;20423;49.448;9.056;2022-12-16T07:19:52;-7.10;99.90
34147;DHT22;20423;49.448;9.056;2022-12-16T07:23:07;-7.00;99.90
34147;DHT22;20423;49.448;9.056;2022-12-16T07:25:52;-7.10;99.90
34147;DHT22;20423;49.448;9.056;2022-12-16T07:29:07;-7.10;99.90
34147;DHT22;20423;49.448;9.056;2022-12-16T07:31:51;-7.10;99.90
34147;DHT22;20423;49.448;9.056;2022-12-16T07:34:36;-7.10;99.90
34147;DHT22;20423;49.448;9.056;2022-12-16T07:37:20;-7.10;99.90
34147;DHT22;20423;49.448;9.056;2022-12-16T07:40:05;-7.00;99.90
34147;DHT22;20423;49.448;9.056;2022-12-16T07:42:49;-7.00;99.90
34147;DHT22;20423;49.448;9.056;2022-12-16T07:45:33;-6.90;99.90
34147;DHT22;20423;49.448;9.056;2022-12-16T07:48:18;-6.80;99.90
34147;DHT22;20423;49.448;9.056;2022-12-16T07:51:02;-6.90;99.90
34147;DHT22;20423;49.448;9.056;2022-12-16T07:53:46;-7.00;99.90
34147;DHT22;20423;49.448;9.056;2022-12-16T07:56:30;-6.90;99.90
34147;DHT22;20423;49.448;9.056;2022-12-16T07:59:15;-6.80;99.90
34147;DHT22;20423;49.448;9.056;2022-12-16T08:01:59;-6.70;99.90
34147;DHT22;20423;49.448;9.056;2022-12-16T08:05:00;-6.60;99.90
34147;DHT22;20423;49.448;9.056;2022-12-16T08:07:50;-6.50;99.90
34147;DHT22;20423;49.448;9.056;2022-12-16T08:10:34;-6.40;99.90
34147;DHT22;20423;49.448;9.056;2022-12-16T08:13:18;-6.20;99.90
34147;DHT22;20423;49.448;9.056;2022-12-16T08:16:02;-5.90;99.90
34147;DHT22;20423;49.448;9.056;2022-12-16T08:18:47;-5.50;99.90
34147;DHT22;20423;49.448;9.056;2022-12-16T08:21:31;-5.20;99.90
34147;DHT22;20423;49.448;9.056;2022-12-16T08:24:15;-5.00;99.90
34147;DHT22;20423;49.448;9.056;2022-12-16T08:26:59;-4.80;99.90
34147;DHT22;20423;49.448;9.056;2022-12-16T08:29:43;-4.70;99.90
34147;DHT22;20423;49.448;9.056;2022-12-16T08:32:28;-4.70;99.90
34147;DHT22;20423;49.448;9.056;2022-12-16T08:35:12;-4.70;99.90
34147;DHT22;20423;49.448;9.056;2022-12-16T08:37:56;-4.70;99.90
34147;DHT22;20423;49.448;9.056;2022-12-16T08:40:42;-4.60;99.90
34147;DHT22;20423;49.448;9.056;2022-12-16T08:43:29;-4.50;99.90
34147;DHT22;20423;49.448;9.056;2022-12-16T08:46:13;-4.50;99.90
34147;DHT22;20423;49.448;9.056;2022-12-16T08:48:59;-4.40;99.90
34147;DHT22;20423;49.448;9.056;2022-12-16T08:51:43;-4.40;99.90
34147;DHT22;20423;49.448;9.056;2022-12-16T08:54:27;-4.30;99.90
34147;DHT22;20423;49.448;9.056;2022-12-16T08:57:11;-4.20;99.90
34147;DHT22;20423;49.448;9.056;2022-12-16T08:59:56;-4.10;99.90
34147;DHT22;20423;49.448;9.056;2022-12-16T09:03:05;-4.10;99.90
34147;DHT22;20423;49.448;9.056;2022-12-16T09:05:49;-4.10;99.90
34147;DHT22;20423;49.448;9.056;2022-12-16T09:12:38;-4.00;99.90
34147;DHT22;20423;49.448;9.056;2022-12-16T09:15:33;-4.10;99.90
34147;DHT22;20423;49.448;9.056;2022-12-16T09:18:17;-4.10;99.90
34147;DHT22;20423;49.448;9.056;2022-12-16T09:21:01;-4.10;99.90
34147;DHT22;20423;49.448;9.056;2022-12-16T09:23:46;-4.00;99.90
34147;DHT22;20423;49.448;9.056;2022-12-16T09:26:30;-3.90;99.90
34147;DHT22;20423;49.448;9.056;2022-12-16T09:29:14;-3.90;99.90
34147;DHT22;20423;49.448;9.056;2022-12-16T09:31:58;-3.90;99.90
34147;DHT22;20423;49.448;9.056;2022-12-16T09:34:46;-3.90;99.90
34147;DHT22;20423;49.448;9.056;2022-12-16T09:37:30;-3.80;99.90
34147;DHT22;20423;49.448;9.056;2022-12-16T09:40:15;-3.90;99.90
34147;DHT22;20423;49.448;9.056;2022-12-16T09:43:33;-3.80;99.90
34147;DHT22;20423;49.448;9.056;2022-12-16T09:49:45;-2.20;99.90
34147;DHT22;20423;49.448;9.056;2022-12-16T09:52:44;-2.10;99.90
34147;DHT22;20423;49.448;9.056;2022-12-16T09:55:37;-2.10;99.90
34147;DHT22;20423;49.448;9.056;2022-12-16T09:58:25;-2.30;99.90
34147;DHT22;20423;49.448;9.056;2022-12-16T10:01:12;-2.10;99.90
34147;DHT22;20423;49.448;9.056;2022-12-16T10:03:56;-2.00;99.90
34147;DHT22;20423;49.448;9.056;2022-12-16T10:06:45;-2.10;99.90
34147;DHT22;20423;49.448;9.056;2022-12-16T10:12:51;-2.10;99.90
34147;DHT22;20423;49.448;9.056;2022-12-16T10:25:20;-1.60;99.90
34147;DHT22;20423;49.448;9.056;2022-12-16T10:28:18;-1.50;99.90
34147;DHT22;20423;49.448;9.056;2022-12-16T10:31:17;-1.80;99.90
34147;DHT22;20423;49.448;9.056;2022-12-16T10:34:04;-1.90;99.90
34147;DHT22;20423;49.448;9.056;2022-12-16T10:37:36;-2.00;99.90
34147;DHT22;20423;49.448;9.056;2022-12-16T10:40:29;-2.10;99.90
34147;DHT22;20423;49.448;9.056;2022-12-16T10:43:33;-2.10;99.90
34147;DHT22;20423;49.448;9.056;2022-12-16T10:46:25;-2.10;99.90
34147;DHT22;20423;49.448;9.056;2022-12-16T10:49:13;-2.00;99.90
34147;DHT22;20423;49.448;9.056;2022-12-16T10:52:11;-2.00;99.90
34147;DHT22;20423;49.448;9.056;2022-12-16T11:00:54;-2.00;99.90
34147;DHT22;20423;49.448;9.056;2022-12-16T11:03:45;-2.00;99.90
34147;DHT22;20423;49.448;9.056;2022-12-16T11:06:39;-2.10;99.90
34147;DHT22;20423;49.448;9.056;2022-12-16T11:15:21;-2.30;99.90
34147;DHT22;20423;49.448;9.056;2022-12-16T11:18:20;-2.20;99.90
34147;DHT22;20423;49.448;9.056;2022-12-16T11:26:52;-1.40;99.90
34147;DHT22;20423;49.448;9.056;2022-12-16T11:30:33;-1.10;99.90
34147;DHT22;20423;49.448;9.056;2022-12-16T11:32:56;-0.80;99.90
34147;DHT22;20423;49.448;9.056;2022-12-16T11:35:46;-0.70;99.90
34147;DHT22;20423;49.448;9.056;2022-12-16T11:38:52;-0.60;99.90
34147;DHT22;20423;49.448;9.056;2022-12-16T11:41:52;-0.50;99.90
34147;DHT22;20423;49.448;9.056;2022-12-16T11:44:42;-0.40;99.90
34147;DHT22;20423;49.448;9.056;2022-12-16T11:47:48;-0.20;99.90
34147;DHT22;20423;49.448;9.056;2022-12-16T11:50:41;-0.10;99.90
34147;DHT22;20423;49.448;9.056;2022-12-16T11:53:47;-0.20;99.90
34147;DHT22;20423;49.448;9.056;2022-12-16T11:56:37;-0.10;99.90
34147;DHT22;20423;49.448;9.056;2022-12-16T11:59:37;0.00;99.90
34147;DHT22;20423;49.448;9.056;2022-12-16T12:02:47;0.00;99.90
34147;DHT22;20423;49.448;9.056;2022-12-16T12:05:45;0.00;99.90
34147;DHT22;20423;49.448;9.056;2022-12-16T12:08:34;0.00;99.90
34147;DHT22;20423;49.448;9.056;2022-12-16T12:11:30;0.00;99.90
34147;DHT22;20423;49.448;9.056;2022-12-16T12:14:42;0.30;99.90
34147;DHT22;20423;49.448;9.056;2022-12-16T12:17:39;0.50;99.90
34147;DHT22;20423;49.448;9.056;2022-12-16T12:20:45;0.70;99.90
34147;DHT22;20423;49.448;9.056;2022-12-16T12:26:37;0.80;99.90
34147;DHT22;20423;49.448;9.056;2022-12-16T12:29:45;0.70;99.90
34147;DHT22;20423;49.448;9.056;2022-12-16T12:39:07;0.60;99.90
34147;DHT22;20423;49.448;9.056;2022-12-16T12:47:47;0.20;99.90
34147;DHT22;20423;49.448;9.056;2022-12-16T12:50:47;0.00;99.90
34147;DHT22;20423;49.448;9.056;2022-12-16T12:53:49;-0.20;99.90
34147;DHT22;20423;49.448;9.056;2022-12-16T12:56:50;-0.20;99.90
34147;DHT22;20423;49.448;9.056;2022-12-16T12:59:58;-0.20;99.90
34147;DHT22;20423;49.448;9.056;2022-12-16T13:06:02;-0.30;99.90
34147;DHT22;20423;49.448;9.056;2022-12-16T13:08:57;-0.30;99.90
34147;DHT22;20423;49.448;9.056;2022-12-16T13:14:52;-0.50;99.90
34147;DHT22;20423;49.448;9.056;2022-12-16T13:20:56;-0.60;99.90
34147;DHT22;20423;49.448;9.056;2022-12-16T13:23:44;-0.50;99.90
34147;DHT22;20423;49.448;9.056;2022-12-16T13:26:31;-0.50;99.90
34147;DHT22;20423;49.448;9.056;2022-12-16T13:29:27;-0.50;99.90
34147;DHT22;20423;49.448;9.056;2022-12-16T13:32:29;-0.40;99.90
34147;DHT22;20423;49.448;9.056;2022-12-16T13:35:17;-0.40;99.90
34147;DHT22;20423;49.448;9.056;2022-12-16T13:38:04;-0.40;99.90
34147;DHT22;20423;49.448;9.056;2022-12-16T13:40:53;-0.50;99.90
34147;DHT22;20423;49.448;9.056;2022-12-16T13:46:52;-0.60;99.90
34147;DHT22;20423;49.448;9.056;2022-12-16T13:52:45;-0.70;99.90
34147;DHT22;20423;49.448;9.056;2022-12-16T13:55:37;-0.80;99.90
34147;DHT22;20423;49.448;9.056;2022-12-16T13:58:41;-0.90;99.90
34147;DHT22;20423;49.448;9.056;2022-12-16T14:04:47;-1.10;99.90
34147;DHT22;20423;49.448;9.056;2022-12-16T14:07:36;-1.20;99.90
34147;DHT22;20423;49.448;9.056;2022-12-16T14:10:27;-1.20;99.90
34147;DHT22;20423;49.448;9.056;2022-12-16T14:16:34;-1.20;99.90
34147;DHT22;20423;49.448;9.056;2022-12-16T14:19:33;-1.20;99.90
34147;DHT22;20423;49.448;9.056;2022-12-16T14:25:44;-1.30;99.90
34147;DHT22;20423;49.448;9.056;2022-12-16T14:28:32;-1.30;99.90
34147;DHT22;20423;49.448;9.056;2022-12-16T14:31:36;-1.40;99.90
34147;DHT22;20423;49.448;9.056;2022-12-16T14:34:26;-1.40;99.90
34147;DHT22;20423;49.448;9.056;2022-12-16T14:37:36;-1.50;99.90
34147;DHT22;20423;49.448;9.056;2022-12-16T14:44:24;-1.70;99.90
34147;DHT22;20423;49.448;9.056;2022-12-16T14:47:16;-1.70;99.90
34147;DHT22;20423;49.448;9.056;2022-12-16T14:50:27;-1.70;99.90
34147;DHT22;20423;49.448;9.056;2022-12-16T14:53:21;-1.80;99.90
34147;DHT22;20423;49.448;9.056;2022-12-16T14:56:21;-1.80;99.90
34147;DHT22;20423;49.448;9.056;2022-12-16T15:01:54;-2.00;99.90
34147;DHT22;20423;49.448;9.056;2022-12-16T15:04:39;-2.00;99.90
34147;DHT22;20423;49.448;9.056;2022-12-16T15:07:25;-2.10;99.90
34147;DHT22;20423;49.448;9.056;2022-12-16T15:10:13;-2.20;99.90
34147;DHT22;20423;49.448;9.056;2022-12-16T15:12:58;-2.20;99.90
34147;DHT22;20423;49.448;9.056;2022-12-16T15:15:47;-2.30;99.90
34147;DHT22;20423;49.448;9.056;2022-12-16T15:18:41;-2.40;99.90
34147;DHT22;20423;49.448;9.056;2022-12-16T15:21:33;-2.50;99.90
34147;DHT22;20423;49.448;9.056;2022-12-16T15:24:19;-2.50;99.90
34147;DHT22;20423;49.448;9.056;2022-12-16T15:29:57;-2.50;99.90
34147;DHT22;20423;49.448;9.056;2022-12-16T15:33:05;-2.50;99.90
34147;DHT22;20423;49.448;9.056;2022-12-16T15:35:49;-2.50;99.90
34147;DHT22;20423;49.448;9.056;2022-12-16T15:38:33;-2.60;99.90
34147;DHT22;20423;49.448;9.056;2022-12-16T15:41:30;-2.60;99.90
34147;DHT22;20423;49.448;9.056;2022-12-16T15:44:20;-2.60;99.90
34147;DHT22;20423;49.448;9.056;2022-12-16T15:47:51;-2.60;99.90
34147;DHT22;20423;49.448;9.056;2022-12-16T15:50:15;-2.60;99.90
34147;DHT22;20423;49.448;9.056;2022-12-16T15:53:30;-2.60;99.90
34147;DHT22;20423;49.448;9.056;2022-12-16T15:59:25;-2.60;99.90
34147;DHT22;20423;49.448;9.056;2022-12-16T16:05:57;-2.60;99.90
34147;DHT22;20423;49.448;9.056;2022-12-16T16:08:41;-2.70;99.90
34147;DHT22;20423;49.448;9.056;2022-12-16T16:11:25;-2.70;99.90
34147;DHT22;20423;49.448;9.056;2022-12-16T16:14:09;-2.70;99.90
34147;DHT22;20423;49.448;9.056;2022-12-16T16:16:53;-2.80;99.90
34147;DHT22;20423;49.448;9.056;2022-12-16T16:20:15;-2.80;99.90
34147;DHT22;20423;49.448;9.056;2022-12-16T16:22:59;-2.80;99.90
34147;DHT22;20423;49.448;9.056;2022-12-16T16:25:44;-2.80;99.90
34147;DHT22;20423;49.448;9.056;2022-12-16T16:28:30;-2.80;99.90
34147;DHT22;20423;49.448;9.056;2022-12-16T16:31:14;-2.80;99.90
34147;DHT22;20423;49.448;9.056;2022-12-16T16:33:58;-2.80;99.90
34147;DHT22;20423;49.448;9.056;2022-12-16T16:36:43;-2.80;99.90
34147;DHT22;20423;49.448;9.056;2022-12-16T16:39:27;-2.80;99.90
34147;DHT22;20423;49.448;9.056;2022-12-16T16:42:11;-2.90;99.90
34147;DHT22;20423;49.448;9.056;2022-12-16T16:44:56;-2.90;99.90
34147;DHT22;20423;49.448;9.056;2022-12-16T16:47:40;-2.90;99.90
34147;DHT22;20423;49.448;9.056;2022-12-16T16:50:24;-3.00;99.90
34147;DHT22;20423;49.448;9.056;2022-12-16T16:53:13;-3.00;99.90
34147;DHT22;20423;49.448;9.056;2022-12-16T16:55:58;-3.10;99.90
34147;DHT22;20423;49.448;9.056;2022-12-16T16:58:43;-3.10;99.90
34147;DHT22;20423;49.448;9.056;2022-12-16T17:01:27;-3.20;99.90
34147;DHT22;20423;49.448;9.056;2022-12-16T17:04:11;-3.20;99.90
34147;DHT22;20423;49.448;9.056;2022-12-16T17:06:55;-3.40;99.90
34147;DHT22;20423;49.448;9.056;2022-12-16T17:09:39;-3.50;99.90
34147;DHT22;20423;49.448;9.056;2022-12-16T17:12:26;-3.60;99.90
34147;DHT22;20423;49.448;9.056;2022-12-16T17:15:23;-3.60;99.90
34147;DHT22;20423;49.448;9.056;2022-12-16T17:18:08;-3.80;99.90
34147;DHT22;20423;49.448;9.056;2022-12-16T17:20:53;-3.80;99.90
34147;DHT22;20423;49.448;9.056;2022-12-16T17:23:38;-4.10;99.90
34147;DHT22;20423;49.448;9.056;2022-12-16T17:26:22;-4.20;99.90
34147;DHT22;20423;49.448;9.056;2022-12-16T17:29:27;-4.30;99.90
34147;DHT22;20423;49.448;9.056;2022-12-16T17:32:11;-4.40;99.90
34147;DHT22;20423;49.448;9.056;2022-12-16T17:34:56;-4.60;99.90
34147;DHT22;20423;49.448;9.056;2022-12-16T17:37:46;-4.80;99.90
34147;DHT22;20423;49.448;9.056;2022-12-16T17:40:31;-4.80;99.90
34147;DHT22;20423;49.448;9.056;2022-12-16T17:43:15;-5.00;99.90
34147;DHT22;20423;49.448;9.056;2022-12-16T17:46:06;-5.10;99.90
34147;DHT22;20423;49.448;9.056;2022-12-16T17:48:56;-5.20;99.90
34147;DHT22;20423;49.448;9.056;2022-12-16T17:51:41;-5.30;99.90
34147;DHT22;20423;49.448;9.056;2022-12-16T17:54:28;-5.30;99.90
34147;DHT22;20423;49.448;9.056;2022-12-16T17:57:12;-5.40;99.90
34147;DHT22;20423;49.448;9.056;2022-12-16T17:59:57;-5.50;99.90
34147;DHT22;20423;49.448;9.056;2022-12-16T18:02:41;-5.50;99.90
34147;DHT22;20423;49.448;9.056;2022-12-16T18:05:26;-5.60;99.90
34147;DHT22;20423;49.448;9.056;2022-12-16T18:08:10;-5.60;99.90
34147;DHT22;20423;49.448;9.056;2022-12-16T18:10:56;-5.60;99.90
34147;DHT22;20423;49.448;9.056;2022-12-16T18:13:41;-5.70;99.90
34147;DHT22;20423;49.448;9.056;2022-12-16T18:16:37;-6.00;99.90
34147;DHT22;20423;49.448;9.056;2022-12-16T18:19:21;-6.20;99.90
34147;DHT22;20423;49.448;9.056;2022-12-16T18:22:06;-6.30;99.90
34147;DHT22;20423;49.448;9.056;2022-12-16T18:24:50;-6.30;99.90
34147;DHT22;20423;49.448;9.056;2022-12-16T18:27:35;-6.30;99.90
34147;DHT22;20423;49.448;9.056;2022-12-16T18:30:19;-6.30;99.90
34147;DHT22;20423;49.448;9.056;2022-12-16T18:33:03;-6.30;99.90
34147;DHT22;20423;49.448;9.056;2022-12-16T18:35:48;-6.20;99.90
34147;DHT22;20423;49.448;9.056;2022-12-16T18:38:32;-6.30;99.90
34147;DHT22;20423;49.448;9.056;2022-12-16T18:41:19;-6.20;99.90
34147;DHT22;20423;49.448;9.056;2022-12-16T18:44:04;-6.40;99.90
34147;DHT22;20423;49.448;9.056;2022-12-16T18:46:49;-6.50;99.90
34147;DHT22;20423;49.448;9.056;2022-12-16T18:49:33;-6.60;99.90
34147;DHT22;20423;49.448;9.056;2022-12-16T18:52:19;-6.60;99.90
34147;DHT22;20423;49.448;9.056;2022-12-16T18:55:03;-6.60;99.90
34147;DHT22;20423;49.448;9.056;2022-12-16T18:57:50;-6.50;99.90
34147;DHT22;20423;49.448;9.056;2022-12-16T19:00:34;-6.50;99.90
34147;DHT22;20423;49.448;9.056;2022-12-16T19:03:18;-6.40;99.90
34147;DHT22;20423;49.448;9.056;2022-12-16T19:06:02;-6.40;99.90
34147;DHT22;20423;49.448;9.056;2022-12-16T19:09:02;-6.40;99.90
34147;DHT22;20423;49.448;9.056;2022-12-16T19:11:46;-6.40;99.90
34147;DHT22;20423;49.448;9.056;2022-12-16T19:14:30;-6.30;99.90
34147;DHT22;20423;49.448;9.056;2022-12-16T19:17:15;-6.20;99.90
34147;DHT22;20423;49.448;9.056;2022-12-16T19:19:59;-6.20;99.90
34147;DHT22;20423;49.448;9.056;2022-12-16T19:23:00;-6.20;99.90
34147;DHT22;20423;49.448;9.056;2022-12-16T19:25:44;-6.30;99.90
34147;DHT22;20423;49.448;9.056;2022-12-16T19:28:29;-6.30;99.90
34147;DHT22;20423;49.448;9.056;2022-12-16T19:31:13;-6.40;99.90
34147;DHT22;20423;49.448;9.056;2022-12-16T19:33:57;-6.50;99.90
34147;DHT22;20423;49.448;9.056;2022-12-16T19:36:42;-6.80;99.90
34147;DHT22;20423;49.448;9.056;2022-12-16T19:39:26;-6.90;99.90
34147;DHT22;20423;49.448;9.056;2022-12-16T19:42:11;-7.00;99.90
34147;DHT22;20423;49.448;9.056;2022-12-16T19:44:56;-7.10;99.90